Time;durP1;ratioP1;P1;durP2;ratioP2;P2;SDS_P1;SDS_P2;PMS_P1;PMS_P2;Temp;Humidity;BMP_temperature;BMP_pressure;BME280_temperature;BME280_humidity;BME280_pressure;Samples;Min_cycle;Max_cycle;Signal;HPM_P1;HPM_P2
2022/10/20 00:02:21;;;;;;;;;;;16.30;99.90;;;;;;5012163;28;19929;-60
2022/10/20 00:04:46;;;;;;;;;;;16.30;99.90;;;;;;5014813;28;19999;-61
2022/10/20 00:07:12;;;;;;;;;;;16.20;99.90;;;;;;5016209;28;20326;-60
2022/10/20 00:09:37;;;;;;;;;;;16.10;99.90;;;;;;5016141;28;19909;-60
2022/10/20 00:12:03;;;;;;;;;;;16.10;99.90;;;;;;5017560;28;20004;-60
2022/10/20 00:14:28;;;;;;;;;;;16.10;99.90;;;;;;5013039;28;19919;-60
2022/10/20 00:16:54;;;;;;;;;;;16.10;99.90;;;;;;5009524;28;20376;-60
2022/10/20 00:19:19;;;;;;;;;;;16.10;99.90;;;;;;5007421;28;19911;-60
2022/10/20 00:21:45;;;;;;;;;;;16.10;99.90;;;;;;5015053;28;19956;-59
2022/10/20 00:24:10;;;;;;;;;;;16.10;99.90;;;;;;5013184;28;19992;-60
2022/10/20 00:26:36;;;;;;;;;;;16.10;99.90;;;;;;5014149;28;19921;-60
2022/10/20 00:29:02;;;;;;;;;;;16.10;99.90;;;;;;5013432;28;19952;-60
2022/10/20 00:31:27;;;;;;;;;;;16.00;99.90;;;;;;5004038;28;19932;-60
2022/10/20 00:33:53;;;;;;;;;;;15.90;99.90;;;;;;5010999;28;20759;-59
2022/10/20 00:36:20;;;;;;;;;;;15.90;99.90;;;;;;5020320;28;19909;-60
2022/10/20 00:38:45;;;;;;;;;;;15.80;99.90;;;;;;5017230;28;20309;-59
2022/10/20 00:41:12;;;;;;;;;;;15.90;99.90;;;;;;5016297;28;19962;-60
2022/10/20 00:43:54;;;;;;;;;;;15.90;99.90;;;;;;5011861;28;19966;-60
2022/10/20 00:46:25;;;;;;;;;;;15.90;99.90;;;;;;5004202;28;19951;-59
2022/10/20 00:48:52;;;;;;;;;;;15.90;99.90;;;;;;5010486;28;19917;-60
2022/10/20 00:51:19;;;;;;;;;;;15.90;99.90;;;;;;5004367;28;19964;-60
2022/10/20 00:53:46;;;;;;;;;;;15.90;99.90;;;;;;5018006;28;20039;-60
2022/10/20 00:56:13;;;;;;;;;;;15.80;99.90;;;;;;5010020;28;19913;-61
2022/10/20 00:58:38;;;;;;;;;;;15.80;99.90;;;;;;5009519;28;20019;-61
2022/10/20 01:01:04;;;;;;;;;;;15.80;99.90;;;;;;5011390;28;20068;-61
2022/10/20 01:03:33;;;;;;;;;;;15.70;99.90;;;;;;5009047;28;19909;-60
2022/10/20 01:05:59;;;;;;;;;;;15.70;99.90;;;;;;5018773;28;19909;-60
2022/10/20 01:08:24;;;;;;;;;;;15.60;99.90;;;;;;5007288;28;19916;-59
2022/10/20 01:10:56;;;;;;;;;;;15.70;99.90;;;;;;5011924;28;19913;-61
2022/10/20 01:13:29;;;;;;;;;;;15.70;99.90;;;;;;5012813;28;19909;-60
2022/10/20 01:16:01;;;;;;;;;;;15.70;99.90;;;;;;5021161;28;20323;-62
2022/10/20 01:18:32;;;;;;;;;;;15.80;99.90;;;;;;5012000;28;20262;-60
2022/10/20 01:21:04;;;;;;;;;;;15.80;99.90;;;;;;5011013;28;19910;-60
2022/10/20 01:23:48;;;;;;;;;;;15.70;99.90;;;;;;5003799;28;19968;-60
2022/10/20 01:26:22;;;;;;;;;;;15.70;99.90;;;;;;5017075;28;19909;-60
2022/10/20 01:28:57;;;;;;;;;;;15.60;99.90;;;;;;5020519;28;20401;-61
2022/10/20 01:31:30;;;;;;;;;;;15.50;99.90;;;;;;5009840;28;19910;-60
2022/10/20 01:34:08;;;;;;;;;;;15.50;99.90;;;;;;5012555;28;19910;-60
2022/10/20 01:36:39;;;;;;;;;;;15.50;99.90;;;;;;5014484;28;19913;-60
2022/10/20 01:39:16;;;;;;;;;;;15.50;99.90;;;;;;5016588;28;20381;-60
2022/10/20 01:41:44;;;;;;;;;;;15.30;99.90;;;;;;5013743;28;19928;-61
2022/10/20 01:44:12;;;;;;;;;;;15.20;99.90;;;;;;5012337;28;20381;-60
2022/10/20 01:46:38;;;;;;;;;;;15.10;99.90;;;;;;5015900;28;20389;-61
2022/10/20 01:49:05;;;;;;;;;;;15.00;99.90;;;;;;5019078;28;19913;-60
2022/10/20 01:51:31;;;;;;;;;;;15.00;99.90;;;;;;5020061;28;19909;-61
2022/10/20 01:53:56;;;;;;;;;;;15.00;99.90;;;;;;5017890;28;19909;-60
2022/10/20 01:56:27;;;;;;;;;;;15.10;99.90;;;;;;5015436;28;19963;-60
2022/10/20 01:59:11;;;;;;;;;;;15.10;99.90;;;;;;5013709;28;19910;-59
2022/10/20 02:02:00;;;;;;;;;;;15.10;99.90;;;;;;5015468;28;19959;-61
2022/10/20 02:04:45;;;;;;;;;;;15.30;99.90;;;;;;5005270;28;19921;-62
2022/10/20 02:07:15;;;;;;;;;;;15.50;99.90;;;;;;4998435;28;20401;-60
2022/10/20 02:09:46;;;;;;;;;;;15.60;99.90;;;;;;5021413;28;19931;-60
2022/10/20 02:12:15;;;;;;;;;;;15.80;99.90;;;;;;5015054;28;20369;-61
2022/10/20 02:14:41;;;;;;;;;;;15.90;99.90;;;;;;5015152;28;19916;-60
2022/10/20 02:17:09;;;;;;;;;;;15.90;99.90;;;;;;5016559;28;19909;-60
2022/10/20 02:19:37;;;;;;;;;;;16.00;99.90;;;;;;5016314;28;19917;-60
2022/10/20 02:22:03;;;;;;;;;;;16.00;99.90;;;;;;5012318;28;19965;-60
2022/10/20 02:24:31;;;;;;;;;;;15.90;99.90;;;;;;5015708;28;19955;-61
2022/10/20 02:26:57;;;;;;;;;;;15.80;99.90;;;;;;5018905;28;20373;-60
2022/10/20 02:29:27;;;;;;;;;;;15.70;99.90;;;;;;5009953;28;20012;-61
2022/10/20 02:31:53;;;;;;;;;;;15.60;99.90;;;;;;5015559;28;20380;-60
2022/10/20 02:34:19;;;;;;;;;;;15.50;99.90;;;;;;5015971;28;20392;-62
2022/10/20 02:36:44;;;;;;;;;;;15.40;99.90;;;;;;5016200;28;19909;-60
2022/10/20 02:39:10;;;;;;;;;;;15.40;99.90;;;;;;5014084;28;20388;-60
2022/10/20 02:41:36;;;;;;;;;;;15.50;99.90;;;;;;5016180;28;20285;-61
2022/10/20 02:44:01;;;;;;;;;;;15.50;99.90;;;;;;5019626;28;19966;-61
2022/10/20 02:46:27;;;;;;;;;;;15.50;99.90;;;;;;5008361;28;20285;-59
2022/10/20 02:48:52;;;;;;;;;;;15.50;99.90;;;;;;5015977;28;20285;-60
2022/10/20 02:51:18;;;;;;;;;;;15.50;99.90;;;;;;5012210;28;20253;-60
2022/10/20 02:53:44;;;;;;;;;;;15.60;99.90;;;;;;5008514;28;20325;-61
2022/10/20 02:56:10;;;;;;;;;;;15.60;99.90;;;;;;5023174;28;19955;-61
2022/10/20 02:58:35;;;;;;;;;;;15.60;99.90;;;;;;5020268;28;19909;-60
2022/10/20 03:01:01;;;;;;;;;;;15.60;99.90;;;;;;5011671;28;19928;-60
2022/10/20 03:03:27;;;;;;;;;;;15.60;99.90;;;;;;5008319;28;19913;-59
2022/10/20 03:05:52;;;;;;;;;;;15.60;99.90;;;;;;5009237;28;19909;-61
2022/10/20 03:08:18;;;;;;;;;;;15.70;99.90;;;;;;5009737;28;19909;-60
2022/10/20 03:10:43;;;;;;;;;;;15.70;99.90;;;;;;5010872;28;19915;-60
2022/10/20 03:13:09;;;;;;;;;;;15.80;99.90;;;;;;5018510;28;19932;-60
2022/10/20 03:15:35;;;;;;;;;;;15.80;99.90;;;;;;5017369;28;19910;-61
2022/10/20 03:18:01;;;;;;;;;;;15.80;99.90;;;;;;5017777;28;19909;-60
2022/10/20 03:20:26;;;;;;;;;;;15.90;99.90;;;;;;5006897;28;19920;-60
2022/10/20 03:22:52;;;;;;;;;;;15.90;99.90;;;;;;5015624;28;20432;-60
2022/10/20 03:25:17;;;;;;;;;;;16.00;99.90;;;;;;5013346;28;19909;-60
2022/10/20 03:27:42;;;;;;;;;;;16.00;99.90;;;;;;5015919;28;19920;-61
2022/10/20 03:30:08;;;;;;;;;;;16.00;99.90;;;;;;5013227;28;19956;-59
2022/10/20 03:32:34;;;;;;;;;;;16.00;99.90;;;;;;5014987;28;19916;-59
2022/10/20 03:34:59;;;;;;;;;;;16.00;99.90;;;;;;5010850;28;19919;-61
2022/10/20 03:37:25;;;;;;;;;;;16.10;99.90;;;;;;5017779;28;19963;-60
2022/10/20 03:39:50;;;;;;;;;;;16.10;99.90;;;;;;5014766;28;19963;-61
2022/10/20 03:42:16;;;;;;;;;;;16.10;99.90;;;;;;5010334;28;19984;-60
2022/10/20 03:44:43;;;;;;;;;;;16.20;99.90;;;;;;5014430;28;19909;-59
2022/10/20 03:47:10;;;;;;;;;;;16.30;99.90;;;;;;5009326;28;19920;-60
2022/10/20 03:49:36;;;;;;;;;;;16.30;99.90;;;;;;5008805;28;20334;-60
2022/10/20 03:52:01;;;;;;;;;;;16.40;99.90;;;;;;5011716;28;20419;-60
2022/10/20 03:54:27;;;;;;;;;;;16.40;99.90;;;;;;5016984;28;19949;-60
2022/10/20 03:56:52;;;;;;;;;;;16.40;99.90;;;;;;5010243;28;19909;-60
2022/10/20 03:59:18;;;;;;;;;;;16.40;99.90;;;;;;5007308;28;20242;-61
2022/10/20 04:01:44;;;;;;;;;;;16.40;99.90;;;;;;5009467;28;19925;-59
2022/10/20 04:04:09;;;;;;;;;;;16.50;99.90;;;;;;5017113;28;19909;-60
2022/10/20 04:06:35;;;;;;;;;;;16.50;99.90;;;;;;5015822;28;19917;-60
2022/10/20 04:09:01;;;;;;;;;;;16.50;99.90;;;;;;5009165;28;19910;-60
2022/10/20 04:11:26;;;;;;;;;;;16.50;99.90;;;;;;5015611;28;19932;-60
2022/10/20 04:13:52;;;;;;;;;;;16.50;99.90;;;;;;5010956;28;20035;-60
2022/10/20 04:16:17;;;;;;;;;;;16.50;99.90;;;;;;5016376;28;19995;-60
2022/10/20 04:18:43;;;;;;;;;;;16.50;99.90;;;;;;5016065;28;19913;-60
2022/10/20 04:21:08;;;;;;;;;;;16.50;99.90;;;;;;5007564;28;19913;-61
2022/10/20 04:23:34;;;;;;;;;;;16.50;99.90;;;;;;5017371;28;20280;-60
2022/10/20 04:26:05;;;;;;;;;;;16.60;99.90;;;;;;5008051;28;19952;-60
2022/10/20 04:28:31;;;;;;;;;;;16.60;99.90;;;;;;5012243;28;19948;-62
2022/10/20 04:30:58;;;;;;;;;;;16.60;99.90;;;;;;5008807;28;19948;-60
2022/10/20 04:33:23;;;;;;;;;;;16.50;99.90;;;;;;5014185;28;19910;-60
2022/10/20 04:35:54;;;;;;;;;;;16.50;99.90;;;;;;5019824;28;19917;-60
2022/10/20 04:38:20;;;;;;;;;;;16.50;99.90;;;;;;5010993;28;20000;-61
2022/10/20 04:40:52;;;;;;;;;;;16.50;99.90;;;;;;5020478;28;19956;-61
2022/10/20 04:43:17;;;;;;;;;;;16.60;99.90;;;;;;5019352;28;19917;-60
2022/10/20 04:45:43;;;;;;;;;;;16.60;99.90;;;;;;5014962;28;20011;-61
2022/10/20 04:48:08;;;;;;;;;;;16.60;99.90;;;;;;5019905;28;19913;-61
2022/10/20 04:50:34;;;;;;;;;;;16.60;99.90;;;;;;5012512;28;20357;-60
2022/10/20 04:52:59;;;;;;;;;;;16.70;99.90;;;;;;5018054;28;19949;-60
2022/10/20 04:55:25;;;;;;;;;;;16.80;99.90;;;;;;5009667;28;20266;-60
2022/10/20 04:57:50;;;;;;;;;;;16.70;99.90;;;;;;5004509;28;19917;-59
2022/10/20 05:00:16;;;;;;;;;;;16.70;99.90;;;;;;5015657;28;19909;-60
2022/10/20 05:02:41;;;;;;;;;;;16.80;99.90;;;;;;5014671;28;20072;-60
2022/10/20 05:05:07;;;;;;;;;;;16.70;99.90;;;;;;5010752;28;19909;-60
2022/10/20 05:07:32;;;;;;;;;;;16.70;99.90;;;;;;5014117;28;19909;-60
2022/10/20 05:09:58;;;;;;;;;;;16.80;99.90;;;;;;5018588;28;19916;-60
2022/10/20 05:12:23;;;;;;;;;;;16.70;99.90;;;;;;5008370;28;19964;-60
2022/10/20 05:14:49;;;;;;;;;;;16.70;99.90;;;;;;5013752;28;19948;-60
2022/10/20 05:17:14;;;;;;;;;;;16.70;99.90;;;;;;5015624;28;19976;-60
2022/10/20 05:19:40;;;;;;;;;;;16.70;99.90;;;;;;5008900;28;20381;-61
2022/10/20 05:22:05;;;;;;;;;;;16.80;99.90;;;;;;5011695;28;19972;-60
2022/10/20 05:24:31;;;;;;;;;;;16.70;99.90;;;;;;5013054;28;19915;-61
2022/10/20 05:26:56;;;;;;;;;;;16.80;99.90;;;;;;5012141;28;20313;-63
2022/10/20 05:29:22;;;;;;;;;;;16.80;99.90;;;;;;5012055;28;20381;-61
2022/10/20 05:31:47;;;;;;;;;;;16.70;99.90;;;;;;5004234;28;19916;-61
2022/10/20 05:34:13;;;;;;;;;;;16.70;99.90;;;;;;5014658;28;19909;-60
2022/10/20 05:36:38;;;;;;;;;;;16.70;99.90;;;;;;5010951;28;19916;-60
2022/10/20 05:39:04;;;;;;;;;;;16.70;99.90;;;;;;5014418;28;19933;-60
2022/10/20 05:41:31;;;;;;;;;;;16.60;99.90;;;;;;5010509;28;19917;-61
2022/10/20 05:43:58;;;;;;;;;;;16.70;99.90;;;;;;5022253;28;19909;-61
2022/10/20 05:46:24;;;;;;;;;;;16.70;99.90;;;;;;5010659;28;20000;-61
2022/10/20 05:48:51;;;;;;;;;;;16.60;99.90;;;;;;5008716;28;19916;-60
2022/10/20 05:51:18;;;;;;;;;;;16.60;99.90;;;;;;5004340;28;20384;-60
2022/10/20 05:53:45;;;;;;;;;;;16.60;99.90;;;;;;5008635;28;19995;-60
2022/10/20 05:56:12;;;;;;;;;;;16.50;99.90;;;;;;5002792;28;20274;-61
2022/10/20 05:58:38;;;;;;;;;;;16.50;99.90;;;;;;5015973;28;19943;-60
2022/10/20 06:01:19;;;;;;;;;;;16.60;99.90;;;;;;5002177;28;19983;-61
2022/10/20 06:03:55;;;;;;;;;;;16.60;99.90;;;;;;5009423;28;19961;-60
2022/10/20 06:06:22;;;;;;;;;;;16.60;99.90;;;;;;5000169;28;19917;-59
2022/10/20 06:08:47;;;;;;;;;;;16.50;99.90;;;;;;5004002;28;19913;-60
2022/10/20 06:11:14;;;;;;;;;;;16.50;99.90;;;;;;5009359;28;19910;-61
2022/10/20 06:13:40;;;;;;;;;;;16.50;99.90;;;;;;5013497;28;19909;-60
2022/10/20 06:16:06;;;;;;;;;;;16.50;99.90;;;;;;5018149;28;19917;-61
2022/10/20 06:18:32;;;;;;;;;;;16.40;99.90;;;;;;5006201;28;19932;-59
2022/10/20 06:21:01;;;;;;;;;;;16.40;99.90;;;;;;5018458;28;20345;-60
2022/10/20 06:23:27;;;;;;;;;;;16.40;99.90;;;;;;4997138;28;20324;-60
2022/10/20 06:25:52;;;;;;;;;;;16.40;99.90;;;;;;5007975;28;19964;-60
2022/10/20 06:28:18;;;;;;;;;;;16.50;99.90;;;;;;4998606;28;20350;-60
2022/10/20 06:30:43;;;;;;;;;;;16.40;99.90;;;;;;5009105;28;19909;-61
2022/10/20 06:33:11;;;;;;;;;;;16.40;99.90;;;;;;5015403;28;19909;-60
2022/10/20 06:35:37;;;;;;;;;;;16.50;99.90;;;;;;5005794;28;19966;-60
2022/10/20 06:38:03;;;;;;;;;;;16.60;99.90;;;;;;5011269;28;19960;-60
2022/10/20 06:40:28;;;;;;;;;;;16.50;99.90;;;;;;4999126;28;19913;-60
2022/10/20 06:42:54;;;;;;;;;;;16.50;99.90;;;;;;5005880;28;19976;-60
2022/10/20 06:45:19;;;;;;;;;;;16.60;99.90;;;;;;4994600;28;19917;-60
2022/10/20 06:47:45;;;;;;;;;;;16.60;99.90;;;;;;4999663;28;19916;-60
2022/10/20 06:50:10;;;;;;;;;;;16.60;99.90;;;;;;5002572;28;19953;-60
2022/10/20 06:52:36;;;;;;;;;;;16.60;99.90;;;;;;5008214;28;20273;-61
2022/10/20 06:55:01;;;;;;;;;;;16.60;99.90;;;;;;5010526;28;19916;-61
2022/10/20 06:57:29;;;;;;;;;;;16.60;99.90;;;;;;5007506;28;20284;-60
2022/10/20 06:59:54;;;;;;;;;;;16.60;99.90;;;;;;5012934;28;19963;-60
2022/10/20 07:02:20;;;;;;;;;;;16.60;99.90;;;;;;5014037;28;19921;-60
2022/10/20 07:04:48;;;;;;;;;;;16.60;99.90;;;;;;5005351;28;19913;-61
2022/10/20 07:07:13;;;;;;;;;;;16.60;99.90;;;;;;5013096;28;19928;-61
2022/10/20 07:09:39;;;;;;;;;;;16.60;99.90;;;;;;5005947;28;19909;-59
2022/10/20 07:12:04;;;;;;;;;;;16.50;99.90;;;;;;5004504;28;19914;-61
2022/10/20 07:14:30;;;;;;;;;;;16.60;99.90;;;;;;5006511;28;19913;-60
2022/10/20 07:16:55;;;;;;;;;;;16.60;99.90;;;;;;5004902;28;19909;-60
2022/10/20 07:19:21;;;;;;;;;;;16.60;99.90;;;;;;5005457;28;19916;-61
2022/10/20 07:21:46;;;;;;;;;;;16.60;99.90;;;;;;5005915;28;21320;-60
2022/10/20 07:24:12;;;;;;;;;;;16.60;99.90;;;;;;5004276;28;19910;-59
2022/10/20 07:26:38;;;;;;;;;;;16.60;99.90;;;;;;4999634;28;20008;-60
2022/10/20 07:29:04;;;;;;;;;;;16.60;99.90;;;;;;4998855;28;19917;-61
2022/10/20 07:31:31;;;;;;;;;;;16.60;99.90;;;;;;5002100;28;19909;-60
2022/10/20 07:33:57;;;;;;;;;;;16.60;99.90;;;;;;5025522;28;20280;-60
2022/10/20 07:36:24;;;;;;;;;;;16.60;99.90;;;;;;4999909;28;19959;-60
2022/10/20 07:38:51;;;;;;;;;;;16.60;99.90;;;;;;5008864;28;19913;-62
2022/10/20 07:41:17;;;;;;;;;;;16.60;99.90;;;;;;5003887;28;19913;-59
2022/10/20 07:43:42;;;;;;;;;;;16.70;99.90;;;;;;5003860;28;19971;-59
2022/10/20 07:46:08;;;;;;;;;;;16.60;99.90;;;;;;5004123;28;19921;-60
2022/10/20 07:48:34;;;;;;;;;;;16.60;99.90;;;;;;5003133;28;19916;-60
2022/10/20 07:51:29;;;;;;;;;;;16.60;99.90;;;;;;5002319;28;19913;-61
2022/10/20 07:53:59;;;;;;;;;;;16.60;99.90;;;;;;4998415;28;19984;-60
2022/10/20 07:56:27;;;;;;;;;;;16.60;99.90;;;;;;5004136;28;19992;-60
2022/10/20 07:58:53;;;;;;;;;;;16.60;99.90;;;;;;5002826;28;19967;-61
2022/10/20 08:01:18;;;;;;;;;;;16.60;99.90;;;;;;5000424;28;19921;-60
2022/10/20 08:03:44;;;;;;;;;;;16.60;99.90;;;;;;5003725;28;19914;-60
2022/10/20 08:06:10;;;;;;;;;;;16.70;99.90;;;;;;5005508;28;20443;-60
2022/10/20 08:08:35;;;;;;;;;;;16.70;99.90;;;;;;5001465;28;19932;-64
2022/10/20 08:11:01;;;;;;;;;;;16.70;99.90;;;;;;5003452;28;19940;-60
2022/10/20 08:13:27;;;;;;;;;;;16.70;99.90;;;;;;5005374;28;19914;-60
2022/10/20 08:15:52;;;;;;;;;;;16.70;99.90;;;;;;5010886;28;19936;-60
2022/10/20 08:18:18;;;;;;;;;;;16.70;99.90;;;;;;5006804;28;19922;-60
2022/10/20 08:20:44;;;;;;;;;;;16.70;99.90;;;;;;5023897;28;20401;-60
2022/10/20 08:23:10;;;;;;;;;;;16.70;99.90;;;;;;5006047;28;19955;-60
2022/10/20 08:25:36;;;;;;;;;;;16.80;99.90;;;;;;5000141;28;19937;-62
2022/10/20 08:28:02;;;;;;;;;;;16.80;99.90;;;;;;5004339;28;19948;-60
2022/10/20 08:30:27;;;;;;;;;;;16.90;99.90;;;;;;5006715;28;19917;-60
2022/10/20 08:32:53;;;;;;;;;;;16.90;99.90;;;;;;5002498;28;19996;-62
2022/10/20 08:35:19;;;;;;;;;;;17.00;99.90;;;;;;5005172;28;20245;-61
2022/10/20 08:37:44;;;;;;;;;;;17.10;99.90;;;;;;5013362;28;19991;-59
2022/10/20 08:40:15;;;;;;;;;;;17.10;99.90;;;;;;5010940;28;19921;-61
2022/10/20 08:42:43;;;;;;;;;;;17.10;99.90;;;;;;5001605;28;20396;-61
2022/10/20 08:45:35;;;;;;;;;;;17.20;99.90;;;;;;5003916;28;19981;-60
2022/10/20 08:48:01;;;;;;;;;;;17.30;99.90;;;;;;5009281;28;20011;-61
2022/10/20 08:50:27;;;;;;;;;;;17.30;99.90;;;;;;5001706;28;19989;-61
2022/10/20 08:52:55;;;;;;;;;;;17.30;99.90;;;;;;5002903;28;20007;-61
2022/10/20 08:55:25;;;;;;;;;;;17.20;99.90;;;;;;5005930;28;20032;-60
2022/10/20 08:57:50;;;;;;;;;;;17.10;99.90;;;;;;5007584;28;19961;-60
2022/10/20 09:00:18;;;;;;;;;;;17.00;99.90;;;;;;5001516;28;19959;-60
2022/10/20 09:02:44;;;;;;;;;;;16.90;99.90;;;;;;4995768;28;19960;-66
2022/10/20 09:05:12;;;;;;;;;;;16.80;99.90;;;;;;5003627;28;19910;-61
2022/10/20 09:07:38;;;;;;;;;;;16.70;99.90;;;;;;5011217;28;19917;-59
2022/10/20 09:10:15;;;;;;;;;;;16.60;99.90;;;;;;5013024;28;19917;-60
2022/10/20 09:12:42;;;;;;;;;;;16.50;99.90;;;;;;4999382;28;19963;-60
2022/10/20 09:15:11;;;;;;;;;;;16.40;99.90;;;;;;5011494;28;20354;-60
2022/10/20 09:17:38;;;;;;;;;;;16.40;99.90;;;;;;5014110;28;20012;-60
2022/10/20 09:20:04;;;;;;;;;;;16.40;99.90;;;;;;5010752;28;19917;-60
2022/10/20 09:22:30;;;;;;;;;;;16.30;99.90;;;;;;5009246;28;19928;-60
2022/10/20 09:24:57;;;;;;;;;;;16.30;99.90;;;;;;5009976;28;19909;-60
2022/10/20 09:27:22;;;;;;;;;;;16.40;99.90;;;;;;5005802;28;19909;-59
2022/10/20 09:29:48;;;;;;;;;;;16.40;99.90;;;;;;5007659;28;19909;-59
2022/10/20 09:32:34;;;;;;;;;;;16.60;99.90;;;;;;5004367;28;20587;-59
2022/10/20 09:35:19;;;;;;;;;;;16.90;99.90;;;;;;5006880;28;19962;-59
2022/10/20 09:37:57;;;;;;;;;;;17.30;99.90;;;;;;5012476;28;19971;-60
2022/10/20 09:40:25;;;;;;;;;;;17.60;99.90;;;;;;5003186;28;19909;-60
2022/10/20 09:43:01;;;;;;;;;;;17.70;99.90;;;;;;5010339;28;19957;-60
2022/10/20 09:45:31;;;;;;;;;;;17.80;99.90;;;;;;5007074;28;19925;-61
2022/10/20 09:48:06;;;;;;;;;;;17.80;99.90;;;;;;5007885;28;20448;-60
2022/10/20 09:50:34;;;;;;;;;;;17.80;99.90;;;;;;5012116;28;19952;-60
2022/10/20 09:53:01;;;;;;;;;;;17.90;99.90;;;;;;5012812;28;19989;-60
2022/10/20 09:55:31;;;;;;;;;;;18.00;99.90;;;;;;5008501;28;19910;-60
2022/10/20 09:57:58;;;;;;;;;;;18.10;99.90;;;;;;5005818;28;19920;-60
2022/10/20 10:00:26;;;;;;;;;;;18.20;99.90;;;;;;5008755;28;20005;-61
2022/10/20 10:03:18;;;;;;;;;;;18.40;99.90;;;;;;5010506;28;19936;-59
2022/10/20 10:05:44;;;;;;;;;;;18.60;99.90;;;;;;5007432;28;19921;-60
2022/10/20 10:08:14;;;;;;;;;;;18.60;99.90;;;;;;5009111;28;19917;-59
2022/10/20 10:10:39;;;;;;;;;;;18.60;99.90;;;;;;5007916;28;19909;-60
2022/10/20 10:13:18;;;;;;;;;;;18.60;99.90;;;;;;5008761;28;19910;-60
2022/10/20 10:15:43;;;;;;;;;;;18.50;99.90;;;;;;5010814;28;19917;-61
2022/10/20 10:18:21;;;;;;;;;;;18.40;99.90;;;;;;5008143;28;20088;-59
2022/10/20 10:20:55;;;;;;;;;;;18.40;99.90;;;;;;5005077;28;19996;-60
2022/10/20 10:23:23;;;;;;;;;;;18.40;99.90;;;;;;5008957;28;19924;-60
2022/10/20 10:25:50;;;;;;;;;;;18.30;99.90;;;;;;5010032;28;19910;-60
2022/10/20 10:28:26;;;;;;;;;;;18.20;99.90;;;;;;5004912;28;19918;-59
2022/10/20 10:31:04;;;;;;;;;;;18.20;99.90;;;;;;5008344;28;20416;-59
2022/10/20 10:33:31;;;;;;;;;;;18.10;99.90;;;;;;5010956;28;19913;-59
2022/10/20 10:35:58;;;;;;;;;;;17.90;99.90;;;;;;5009225;28;19963;-60
2022/10/20 10:38:23;;;;;;;;;;;17.80;99.90;;;;;;5006486;28;20343;-59
2022/10/20 10:41:03;;;;;;;;;;;17.80;99.90;;;;;;5008494;28;20012;-60
2022/10/20 10:43:38;;;;;;;;;;;17.80;99.90;;;;;;5000641;28;19980;-58
2022/10/20 10:46:15;;;;;;;;;;;17.70;99.90;;;;;;4443208;28;20381;-59
2022/10/20 10:48:49;;;;;;;;;;;17.60;99.90;;;;;;5007090;28;19910;-58
2022/10/20 10:51:24;;;;;;;;;;;17.60;99.90;;;;;;5008092;28;19917;-59
2022/10/20 10:54:08;;;;;;;;;;;17.50;99.90;;;;;;5010586;28;19911;-58
2022/10/20 10:56:45;;;;;;;;;;;17.40;99.90;;;;;;5010526;28;19999;-59
2022/10/20 10:59:13;;;;;;;;;;;17.30;99.90;;;;;;5011286;28;19917;-60
2022/10/20 11:01:55;;;;;;;;;;;17.60;99.90;;;;;;5008457;28;19913;-63
2022/10/20 11:04:39;;;;;;;;;;;18.00;99.90;;;;;;5009134;28;19917;-59
2022/10/20 11:07:10;;;;;;;;;;;18.20;99.90;;;;;;5015027;28;19913;-59
2022/10/20 11:09:55;;;;;;;;;;;18.40;99.90;;;;;;5006771;28;20400;-59
2022/10/20 11:12:47;;;;;;;;;;;18.60;99.90;;;;;;5005966;28;19909;-60
2022/10/20 11:15:27;;;;;;;;;;;18.50;99.90;;;;;;4995384;28;19909;-60
2022/10/20 11:18:19;;;;;;;;;;;18.90;99.90;;;;;;5009155;28;19996;-59
2022/10/20 11:20:59;;;;;;;;;;;19.10;99.90;;;;;;5007696;28;20265;-60
2022/10/20 11:23:25;;;;;;;;;;;19.40;99.90;;;;;;5008712;28;19957;-62
2022/10/20 11:26:09;;;;;;;;;;;19.50;99.90;;;;;;5004926;28;20317;-61
2022/10/20 11:28:34;;;;;;;;;;;19.40;99.90;;;;;;5006373;28;19909;-60
2022/10/20 11:31:00;;;;;;;;;;;19.40;99.90;;;;;;5006256;28;19975;-60
2022/10/20 11:33:27;;;;;;;;;;;20.20;99.90;;;;;;5005070;28;19910;-60
2022/10/20 11:36:07;;;;;;;;;;;20.70;99.90;;;;;;5005362;28;19921;-59
2022/10/20 11:38:40;;;;;;;;;;;20.90;99.90;;;;;;5005852;28;19955;-59
2022/10/20 11:41:09;;;;;;;;;;;20.80;99.90;;;;;;5010998;28;19963;-60
2022/10/20 11:43:41;;;;;;;;;;;21.20;99.90;;;;;;5008703;28;20292;-60
2022/10/20 11:46:29;;;;;;;;;;;21.20;99.90;;;;;;5009701;28;19918;-60
2022/10/20 11:48:55;;;;;;;;;;;21.80;99.90;;;;;;5012055;28;20275;-59
2022/10/20 11:51:29;;;;;;;;;;;22.00;99.90;;;;;;5009686;28;20470;-59
2022/10/20 11:54:04;;;;;;;;;;;21.90;99.90;;;;;;5009358;28;19909;-60
2022/10/20 11:56:48;;;;;;;;;;;21.60;99.90;;;;;;5007193;28;19917;-61
2022/10/20 11:59:13;;;;;;;;;;;21.60;99.90;;;;;;5003103;28;20000;-60
2022/10/20 12:01:54;;;;;;;;;;;21.70;99.90;;;;;;5001582;28;20000;-61
2022/10/20 12:04:38;;;;;;;;;;;21.90;99.90;;;;;;5002983;28;19909;-59
2022/10/20 12:07:21;;;;;;;;;;;22.20;99.90;;;;;;5007186;28;19917;-59
2022/10/20 12:09:51;;;;;;;;;;;21.90;99.90;;;;;;5002924;28;19910;-61
2022/10/20 12:12:24;;;;;;;;;;;22.10;99.90;;;;;;5000110;28;19909;-60
2022/10/20 12:14:55;;;;;;;;;;;22.30;99.90;;;;;;4999940;28;19973;-60
2022/10/20 12:17:32;;;;;;;;;;;22.50;99.90;;;;;;5010316;28;19967;-59
2022/10/20 12:20:16;;;;;;;;;;;22.20;99.90;;;;;;5009652;28;19911;-60
2022/10/20 12:22:41;;;;;;;;;;;22.20;99.90;;;;;;5006584;28;19979;-60
2022/10/20 12:25:07;;;;;;;;;;;22.10;99.90;;;;;;5008682;28;20365;-61
2022/10/20 12:27:32;;;;;;;;;;;22.20;99.90;;;;;;4998456;28;20007;-61
2022/10/20 12:29:58;;;;;;;;;;;22.10;99.90;;;;;;5004384;28;20353;-61
2022/10/20 12:32:23;;;;;;;;;;;21.70;99.90;;;;;;5006025;28;19921;-60
2022/10/20 12:34:50;;;;;;;;;;;21.40;99.90;;;;;;5007751;28;19949;-61
2022/10/20 12:37:17;;;;;;;;;;;21.50;99.90;;;;;;5008094;28;19909;-60
2022/10/20 12:39:43;;;;;;;;;;;21.80;99.90;;;;;;5000918;28;20017;-61
2022/10/20 12:42:17;;;;;;;;;;;21.80;99.90;;;;;;5007085;28;20000;-61
2022/10/20 12:44:44;;;;;;;;;;;22.00;99.90;;;;;;5007189;28;20415;-60
2022/10/20 12:47:17;;;;;;;;;;;22.40;99.90;;;;;;5003684;28;19924;-60
2022/10/20 12:49:51;;;;;;;;;;;22.30;99.90;;;;;;5006176;28;19917;-61
2022/10/20 12:52:18;;;;;;;;;;;22.50;99.90;;;;;;5001868;28;19964;-61
2022/10/20 12:54:44;;;;;;;;;;;22.60;99.90;;;;;;5004279;28;19984;-60
2022/10/20 12:57:28;;;;;;;;;;;22.90;99.90;;;;;;5006829;28;20043;-61
2022/10/20 12:59:54;;;;;;;;;;;22.80;99.90;;;;;;5018077;28;19987;-61
2022/10/20 13:02:19;;;;;;;;;;;23.00;99.90;;;;;;5009331;28;20582;-60
2022/10/20 13:05:03;;;;;;;;;;;22.70;99.90;;;;;;5012223;28;20273;-59
2022/10/20 13:07:47;;;;;;;;;;;22.60;99.90;;;;;;5009696;28;19917;-60
2022/10/20 13:10:28;;;;;;;;;;;22.50;99.90;;;;;;5008624;28;19910;-59
2022/10/20 13:13:02;;;;;;;;;;;22.70;99.90;;;;;;5002426;28;20353;-61
2022/10/20 13:15:30;;;;;;;;;;;22.70;99.90;;;;;;5006586;28;21476;-60
2022/10/20 13:17:57;;;;;;;;;;;22.70;99.90;;;;;;5008012;28;19963;-60
2022/10/20 13:20:26;;;;;;;;;;;22.80;99.90;;;;;;5008223;28;19953;-61
2022/10/20 13:22:53;;;;;;;;;;;22.70;99.90;;;;;;5012185;28;19917;-61
2022/10/20 13:25:21;;;;;;;;;;;22.70;99.90;;;;;;5009157;28;19910;-62
2022/10/20 13:27:48;;;;;;;;;;;22.90;99.90;;;;;;5001023;28;19910;-63
2022/10/20 13:30:18;;;;;;;;;;;23.00;99.90;;;;;;5008583;28;19917;-60
2022/10/20 13:33:00;;;;;;;;;;;23.20;99.90;;;;;;5010832;28;19959;-61
2022/10/20 13:35:34;;;;;;;;;;;23.50;99.90;;;;;;5006287;28;19963;-61
2022/10/20 13:38:15;;;;;;;;;;;23.50;99.90;;;;;;5005874;28;19917;-62
2022/10/20 13:41:01;;;;;;;;;;;23.20;99.90;;;;;;5010595;28;19910;-61
2022/10/20 13:43:35;;;;;;;;;;;23.10;99.90;;;;;;5008217;28;20400;-62
2022/10/20 13:46:19;;;;;;;;;;;23.30;99.90;;;;;;5008308;28;19917;-62
2022/10/20 13:48:45;;;;;;;;;;;23.70;99.90;;;;;;5004868;28;19909;-61
2022/10/20 13:51:18;;;;;;;;;;;23.70;99.90;;;;;;5007958;28;19909;-61
2022/10/20 13:53:45;;;;;;;;;;;23.90;99.90;;;;;;5010946;28;19924;-62
2022/10/20 13:56:14;;;;;;;;;;;24.20;99.90;;;;;;5008190;28;19979;-61
2022/10/20 13:58:40;;;;;;;;;;;24.10;99.90;;;;;;5003988;28;19921;-61
2022/10/20 14:01:13;;;;;;;;;;;24.20;99.90;;;;;;5008389;28;19955;-62
2022/10/20 14:03:43;;;;;;;;;;;24.10;99.90;;;;;;5006407;28;20404;-61
2022/10/20 14:06:26;;;;;;;;;;;23.80;99.90;;;;;;5009068;28;20005;-61
2022/10/20 14:08:56;;;;;;;;;;;23.30;99.90;;;;;;5004210;28;19916;-61
2022/10/20 14:11:23;;;;;;;;;;;22.80;99.90;;;;;;5009980;28;19913;-62
2022/10/20 14:13:49;;;;;;;;;;;23.10;99.90;;;;;;5019366;28;19966;-62
2022/10/20 14:16:17;;;;;;;;;;;23.50;99.90;;;;;;5005359;28;19913;-61
2022/10/20 14:18:42;;;;;;;;;;;22.80;99.90;;;;;;5004803;28;20270;-60
2022/10/20 14:21:18;;;;;;;;;;;22.00;99.90;;;;;;5007742;28;19910;-61
2022/10/20 14:23:44;;;;;;;;;;;21.80;99.90;;;;;;5004064;28;19929;-62
2022/10/20 14:26:12;;;;;;;;;;;21.20;99.90;;;;;;5001246;28;19915;-61
2022/10/20 14:28:39;;;;;;;;;;;21.20;99.90;;;;;;5004743;28;19913;-62